Fortescue, Missouri
Current Conditions -  °F | °C
As of 11:35 AM on Thursday 23 Oct 2014 (Local Time) from KFNB Reporting Station
Broken Clouds Broken Clouds  
Wind Chill: 66°   Ceiling: 3000
Heat Index: 66°   Visibility: 10mi
Dew Point: 61°   Wind: 10mph
Humidity: 84%   Direction: 270°W
Pressure: 30.08"   Gusts: NA
Location:  40.1428°N, 95.3614°W
Report Text: KFNB 231635Z AUTO 27009KT 10SM SCT011 SCT018 BKN030 19/16 A3008 RMK AO2 T01890161
Loading
Personal Weather Stations






























Interactive Weather Map
Tropical Storm Tracking
New forecast layout! Learn more

10-Day Weather Forecast

Advertisements
Track Severe Weather on mobile